createdAt,value
2018-04-23T00:01:23.770Z,12.70
2018-04-23T00:03:49.938Z,13.67
2018-04-23T00:06:16.222Z,13.37
2018-04-23T00:08:42.572Z,12.80
2018-04-23T00:11:09.656Z,12.93
2018-04-23T00:13:35.708Z,12.00
2018-04-23T00:16:04.449Z,13.03
2018-04-23T00:18:31.587Z,11.80
2018-04-23T00:20:57.695Z,14.20
2018-04-23T00:23:24.528Z,13.17
2018-04-23T00:25:50.818Z,13.17
2018-04-23T00:28:16.900Z,13.80
2018-04-23T00:30:43.013Z,13.67
2018-04-23T00:33:09.115Z,15.13
2018-04-23T00:35:36.000Z,15.63
2018-04-23T00:38:02.140Z,23.13
2018-04-23T00:40:28.224Z,24.30
2018-04-23T00:42:54.323Z,24.90
2018-04-23T00:45:20.410Z,24.97
2018-04-23T00:47:46.511Z,27.07
2018-04-23T00:50:12.599Z,26.13
2018-04-23T00:52:39.430Z,24.60
2018-04-23T00:55:07.004Z,25.80
2018-04-23T00:57:33.100Z,25.73
2018-04-23T00:59:59.182Z,26.80
2018-04-23T01:02:25.279Z,25.77
2018-04-23T01:04:51.415Z,26.07
2018-04-23T01:07:17.570Z,24.93
2018-04-23T01:09:44.192Z,25.00
2018-04-23T01:12:11.283Z,26.67
2018-04-23T01:14:37.371Z,25.53
2018-04-23T01:17:03.465Z,23.80
2018-04-23T01:19:29.628Z,25.03
2018-04-23T01:21:55.946Z,25.70
2018-04-23T01:24:22.275Z,24.60
2018-04-23T01:26:48.583Z,25.37
2018-04-23T01:29:14.877Z,25.80
2018-04-23T01:31:42.006Z,26.07
2018-04-23T01:34:09.110Z,22.57
2018-04-23T01:36:35.658Z,24.40
2018-04-23T01:39:01.830Z,25.87
2018-04-23T01:41:27.943Z,24.40
2018-04-23T01:43:54.289Z,24.93
2018-04-23T01:46:20.375Z,25.60
2018-04-23T01:48:46.470Z,25.87
2018-04-23T01:51:12.585Z,25.23
2018-04-23T01:53:38.674Z,26.47
2018-04-23T01:56:04.971Z,25.93
2018-04-23T01:58:32.008Z,27.60
2018-04-23T02:00:58.331Z,25.30
2018-04-23T02:03:24.636Z,26.33
2018-04-23T02:05:50.942Z,28.33
2018-04-23T02:08:18.011Z,29.30
2018-04-23T02:10:45.051Z,25.70
2018-04-23T02:13:11.859Z,28.50
2018-04-23T02:15:37.964Z,28.30
2018-04-23T02:18:04.245Z,27.27
2018-04-23T02:20:30.554Z,27.27
2018-04-23T02:22:56.868Z,26.50
2018-04-23T02:25:23.175Z,24.47
2018-04-23T02:27:49.498Z,25.10
2018-04-23T02:30:15.789Z,23.47
2018-04-23T02:32:42.134Z,23.50
2018-04-23T02:35:08.410Z,22.27
2018-04-23T02:37:35.474Z,23.37
2018-04-23T02:40:02.313Z,23.80
2018-04-23T02:42:28.624Z,23.20
2018-04-23T02:44:55.011Z,22.50
2018-04-23T02:47:22.058Z,23.93
2018-04-23T02:49:48.427Z,23.87
2018-04-23T02:52:15.462Z,23.17
2018-04-23T02:54:41.763Z,24.40
2018-04-23T02:57:08.051Z,22.77
2018-04-23T02:59:34.346Z,22.43
2018-04-23T03:02:00.651Z,23.80
2018-04-23T03:04:27.699Z,22.00
2018-04-23T03:06:54.010Z,22.63
2018-04-23T03:09:20.336Z,23.50
2018-04-23T03:11:46.657Z,22.87
2018-04-23T03:14:12.971Z,22.50
2018-04-23T03:16:39.335Z,22.20
2018-04-23T03:19:06.066Z,23.37
2018-04-23T03:21:32.347Z,20.80
2018-04-23T03:24:00.150Z,22.33
2018-04-23T03:26:26.267Z,21.87
2018-04-23T03:28:52.379Z,21.57
2018-04-23T03:31:18.697Z,21.63
2018-04-23T03:33:45.031Z,20.90
2018-04-23T03:36:12.556Z,19.83
2018-04-23T03:38:38.834Z,20.73
2018-04-23T03:41:05.167Z,21.00
2018-04-23T03:43:31.452Z,21.47
2018-04-23T03:45:57.740Z,23.20
2018-04-23T03:48:25.283Z,22.23
2018-04-23T03:50:51.555Z,20.17
2018-04-23T03:53:18.026Z,21.53
2018-04-23T03:55:44.143Z,19.50
2018-04-23T03:58:10.306Z,19.57
2018-04-23T04:00:36.619Z,21.50
2018-04-23T04:03:02.930Z,20.43
2018-04-23T04:05:29.625Z,19.50
2018-04-23T04:07:55.710Z,18.40
2018-04-23T04:10:21.825Z,17.60
2018-04-23T04:13:00.277Z,18.10
2018-04-23T04:15:38.847Z,17.50
2018-04-23T04:18:30.228Z,17.47
2018-04-23T04:20:57.567Z,15.83
2018-04-23T04:23:23.882Z,17.73
2018-04-23T04:25:51.005Z,18.20
2018-04-23T04:28:18.167Z,18.20
2018-04-23T04:30:44.468Z,17.17
2018-04-23T04:33:11.252Z,15.47
2018-04-23T04:35:37.575Z,16.17
2018-04-23T04:38:03.838Z,15.30
2018-04-23T04:40:30.436Z,15.60
2018-04-23T04:42:57.478Z,16.17
2018-04-23T04:45:23.782Z,16.47
2018-04-23T04:47:50.859Z,16.17
2018-04-23T04:50:17.151Z,16.17
2018-04-23T04:52:43.448Z,16.23
2018-04-23T04:55:10.053Z,15.70
2018-04-23T04:57:37.099Z,14.63
2018-04-23T05:00:03.524Z,14.93
2018-04-23T05:02:29.826Z,14.03
2018-04-23T05:04:56.886Z,15.27
2018-04-23T05:07:23.923Z,15.60
2018-04-23T05:09:51.095Z,14.63
2018-04-23T05:12:17.386Z,15.10
2018-04-23T05:14:43.771Z,14.10
2018-04-23T05:17:10.352Z,15.20
2018-04-23T05:19:36.995Z,13.73
2018-04-23T05:22:03.307Z,15.30
2018-04-23T05:24:29.650Z,13.67
2018-04-23T05:26:56.410Z,13.43
2018-04-23T05:29:22.718Z,14.13
2018-04-23T05:31:49.070Z,13.83
2018-04-23T05:34:15.398Z,13.37
2018-04-23T05:36:42.140Z,14.00
2018-04-23T05:39:08.510Z,13.70
2018-04-23T05:41:34.821Z,13.27
2018-04-23T05:44:01.205Z,12.67
2018-04-23T05:46:27.587Z,13.80
2018-04-23T05:48:54.651Z,12.70
2018-04-23T05:51:20.975Z,12.10
2018-04-23T05:53:47.276Z,13.73
2018-04-23T05:56:13.590Z,12.70
2018-04-23T05:58:39.896Z,12.80
2018-04-23T06:01:06.974Z,13.10
2018-04-23T06:03:34.902Z,12.37
2018-04-23T06:06:01.144Z,12.87
2018-04-23T06:08:27.234Z,12.00
2018-04-23T06:10:54.084Z,11.80
2018-04-23T06:13:20.189Z,11.67
2018-04-23T06:15:46.302Z,12.40
2018-04-23T06:18:12.606Z,11.80
2018-04-23T06:20:39.672Z,12.37
2018-04-23T06:23:05.838Z,12.60
2018-04-23T06:25:31.926Z,12.67
2018-04-23T06:27:58.048Z,12.87
2018-04-23T06:30:24.159Z,12.87
2018-04-23T06:32:50.491Z,12.20
2018-04-23T06:35:16.847Z,12.23
2018-04-23T06:37:43.242Z,12.20
2018-04-23T06:40:09.558Z,11.37
2018-04-23T06:42:35.867Z,11.13
2018-04-23T06:45:02.160Z,12.60
2018-04-23T06:47:28.477Z,12.40
2018-04-23T06:49:54.763Z,11.90
2018-04-23T06:52:21.836Z,10.87
2018-04-23T06:54:48.228Z,11.47
2018-04-23T06:57:14.543Z,10.23
2018-04-23T06:59:40.865Z,10.80
2018-04-23T07:02:07.179Z,11.73
2018-04-23T07:04:33.494Z,11.10
2018-04-23T07:07:00.522Z,10.43
2018-04-23T07:09:27.577Z,10.63
2018-04-23T07:11:53.907Z,10.13
2018-04-23T07:14:20.952Z,9.60
2018-04-23T07:16:48.039Z,9.63
2018-04-23T07:19:15.075Z,9.53
2018-04-23T07:21:41.380Z,11.43
2018-04-23T07:24:07.694Z,9.37
2018-04-23T07:26:34.006Z,9.37
2018-04-23T07:29:00.301Z,8.93
2018-04-23T07:31:26.676Z,10.20
2018-04-23T07:33:52.994Z,8.60
2018-04-23T07:36:19.298Z,9.70
2018-04-23T07:38:46.352Z,9.20
2018-04-23T07:41:12.643Z,10.20
2018-04-23T07:43:38.972Z,8.20
2018-04-23T07:46:05.300Z,8.60
2018-04-23T07:48:31.613Z,9.17
2018-04-23T07:50:57.911Z,8.73
2018-04-23T07:53:24.194Z,9.43
2018-04-23T07:55:51.666Z,7.30
2018-04-23T07:58:17.951Z,8.40
2018-04-23T08:00:44.254Z,8.20
2018-04-23T08:03:10.747Z,7.57
2018-04-23T08:05:37.043Z,7.17
2018-04-23T08:08:03.368Z,7.27
2018-04-23T08:10:29.661Z,7.57
2018-04-23T08:12:56.000Z,7.40
2018-04-23T08:15:24.494Z,6.77
2018-04-23T08:17:50.804Z,6.17
2018-04-23T08:20:17.295Z,7.17
2018-04-23T08:22:43.652Z,6.20
2018-04-23T08:25:09.968Z,6.10
2018-04-23T08:27:36.300Z,5.90
2018-04-23T08:30:02.788Z,6.93
2018-04-23T08:32:30.780Z,6.67
2018-04-23T08:34:57.082Z,6.43
2018-04-23T08:37:23.378Z,6.70
2018-04-23T08:39:49.682Z,6.57
2018-04-23T08:42:15.962Z,7.27
2018-04-23T08:44:42.247Z,6.80
2018-04-23T08:47:08.561Z,7.67
2018-04-23T08:49:38.143Z,7.10
2018-04-23T08:52:04.449Z,7.90
2018-04-23T08:54:31.496Z,6.73
2018-04-23T08:56:57.595Z,7.57
2018-04-23T08:59:23.693Z,7.10
2018-04-23T09:01:49.792Z,8.07
2018-04-23T09:04:15.912Z,7.50
2018-04-23T09:06:44.367Z,8.20
2018-04-23T09:09:11.443Z,7.03
2018-04-23T09:11:38.483Z,8.17
2018-04-23T09:14:04.778Z,7.20
2018-04-23T09:16:30.871Z,7.50
2018-04-23T09:18:57.186Z,6.37
2018-04-23T09:21:23.502Z,7.57
2018-04-23T09:23:52.224Z,6.53
2018-04-23T09:26:19.290Z,7.67
2018-04-23T09:28:45.627Z,8.40
2018-04-23T09:31:11.958Z,7.20
2018-04-23T09:33:38.359Z,8.93
2018-04-23T09:36:04.689Z,8.30
2018-04-23T09:38:31.026Z,8.50
2018-04-23T09:41:02.606Z,7.60
2018-04-23T09:43:28.894Z,8.67
2018-04-23T09:45:55.259Z,8.00
2018-04-23T09:48:21.525Z,8.20
2018-04-23T09:50:47.785Z,8.73
2018-04-23T09:53:14.067Z,8.40
2018-04-23T09:55:40.384Z,9.33
2018-04-23T09:58:07.855Z,8.60
2018-04-23T10:00:34.175Z,8.90
2018-04-23T10:03:10.221Z,7.47
2018-04-23T10:05:36.334Z,8.47
2018-04-23T10:08:02.474Z,8.73
2018-04-23T10:10:31.323Z,8.23
2018-04-23T10:12:58.380Z,8.10
2018-04-23T10:15:24.523Z,7.33
2018-04-23T10:17:50.835Z,7.10
2018-04-23T10:20:17.269Z,7.43
2018-04-23T10:22:43.585Z,5.53
2018-04-23T10:25:09.893Z,6.77
2018-04-23T10:27:38.203Z,5.37
2018-04-23T10:30:04.533Z,4.80
2018-04-23T10:32:31.587Z,5.30
2018-04-23T10:34:57.874Z,6.87
2018-04-23T10:37:24.199Z,7.53
2018-04-23T10:39:50.531Z,7.70
2018-04-23T10:42:16.843Z,7.07
2018-04-23T10:44:46.604Z,6.33
2018-04-23T10:47:12.921Z,7.07
2018-04-23T10:49:39.220Z,7.40
2018-04-23T10:52:05.513Z,7.83
2018-04-23T10:54:31.819Z,7.90
2018-04-23T10:56:58.131Z,8.10
2018-04-23T10:59:24.433Z,6.83
2018-04-23T11:01:56.093Z,7.60
2018-04-23T11:04:22.242Z,8.17
2018-04-23T11:06:49.425Z,7.73
2018-04-23T11:09:15.532Z,8.53
2018-04-23T11:11:41.648Z,7.30
2018-04-23T11:14:07.783Z,8.10
2018-04-23T11:16:33.871Z,7.17
2018-04-23T11:19:01.768Z,6.80
2018-04-23T11:21:28.800Z,7.30
2018-04-23T11:23:55.174Z,6.20
2018-04-23T11:26:21.615Z,6.10
2018-04-23T11:28:48.004Z,6.60
2018-04-23T11:31:14.131Z,6.90
2018-04-23T11:33:40.503Z,7.13
2018-04-23T11:36:10.838Z,5.70
2018-04-23T11:38:37.151Z,6.30
2018-04-23T11:41:03.461Z,7.00
2018-04-23T11:43:30.521Z,6.50
2018-04-23T11:45:56.848Z,7.33
2018-04-23T11:48:22.960Z,8.40
2018-04-23T11:50:49.270Z,8.00
2018-04-23T11:53:17.926Z,8.77
2018-04-23T11:55:44.972Z,7.17
2018-04-23T11:58:12.027Z,7.93
2018-04-23T12:00:38.124Z,7.17
2018-04-23T12:03:04.216Z,8.10
2018-04-23T12:05:30.318Z,9.00
2018-04-23T12:07:57.236Z,7.13
2018-04-23T12:10:23.332Z,7.70
2018-04-23T12:12:51.866Z,8.50
2018-04-23T12:15:18.220Z,8.40
2018-04-23T12:17:45.276Z,7.80
2018-04-23T12:20:11.567Z,7.33
2018-04-23T12:22:37.883Z,6.77
2018-04-23T12:25:04.184Z,6.50
2018-04-23T12:27:30.487Z,7.33
2018-04-23T12:29:57.549Z,7.27
2018-04-23T12:32:30.192Z,7.00
2018-04-23T12:34:56.390Z,6.63
2018-04-23T12:37:23.227Z,6.53
2018-04-23T12:39:49.318Z,7.53
2018-04-23T12:42:15.414Z,7.90
2018-04-23T12:44:41.755Z,7.10
2018-04-23T12:47:08.795Z,6.60
2018-04-23T12:49:34.898Z,7.40
2018-04-23T12:52:02.807Z,6.67
2018-04-23T12:54:29.097Z,6.40
2018-04-23T12:56:56.170Z,6.80
2018-04-23T12:59:23.278Z,7.37
2018-04-23T13:01:49.568Z,8.30
2018-04-23T13:04:15.650Z,7.97
2018-04-23T13:09:13.162Z,7.10
2018-04-23T13:11:39.969Z,6.37
2018-04-23T13:14:06.083Z,5.97
2018-04-23T13:16:32.204Z,8.00
2018-04-23T13:18:58.356Z,8.40
2018-04-23T13:21:25.204Z,8.10
2018-04-23T13:23:54.746Z,8.87
2018-04-23T13:26:20.904Z,8.37
2018-04-23T13:28:47.000Z,8.67
2018-04-23T13:31:13.111Z,8.63
2018-04-23T13:33:39.957Z,9.37
2018-04-23T13:36:06.055Z,8.33
2018-04-23T13:38:32.205Z,9.40
2018-04-23T13:41:02.941Z,9.70
2018-04-23T13:43:29.145Z,7.77
2018-04-23T13:45:55.391Z,8.00
2018-04-23T13:48:21.557Z,8.60
2018-04-23T13:50:47.763Z,9.60
2018-04-23T13:53:13.854Z,8.50
2018-04-23T13:55:40.704Z,8.70
2018-04-23T13:58:06.794Z,9.30
2018-04-23T14:00:32.884Z,9.00
2018-04-23T14:02:59.000Z,8.33
2018-04-23T14:05:28.142Z,7.77
2018-04-23T14:07:56.650Z,9.30
2018-04-23T14:10:22.834Z,8.33
2018-04-23T14:12:49.386Z,8.60
2018-04-23T14:15:15.739Z,8.00
2018-04-23T14:17:42.613Z,8.90
2018-04-23T14:20:08.728Z,7.80
2018-04-23T14:22:35.583Z,7.50
2018-04-23T14:25:04.236Z,7.17
2018-04-23T14:27:30.399Z,6.40
2018-04-23T14:29:57.308Z,7.40
2018-04-23T14:32:23.523Z,8.03
2018-04-23T14:34:49.649Z,9.23
2018-04-23T14:37:15.761Z,9.47
2018-04-23T14:39:41.894Z,8.60
2018-04-23T14:42:07.978Z,9.63
2018-04-23T14:44:34.080Z,8.90
2018-04-23T14:47:01.247Z,9.17
2018-04-23T14:49:27.359Z,8.73
2018-04-23T14:51:53.465Z,7.50
2018-04-23T14:54:19.592Z,8.40
2018-04-23T14:56:45.695Z,9.57
2018-04-23T14:59:11.792Z,9.07
2018-04-23T15:01:38.103Z,8.80
2018-04-23T15:04:05.154Z,10.40
2018-04-23T15:06:32.005Z,10.67
2018-04-23T15:08:58.134Z,10.23
2018-04-23T15:11:24.561Z,11.03
2018-04-23T15:13:50.683Z,11.60
2018-04-23T15:16:16.810Z,10.50
2018-04-23T15:18:42.915Z,10.60
2018-04-23T15:21:09.755Z,10.87
2018-04-23T15:23:36.633Z,11.23
2018-04-23T15:26:03.499Z,11.80
2018-04-23T15:28:29.645Z,12.03
2018-04-23T15:30:55.834Z,12.63
2018-04-23T15:33:22.151Z,13.73
2018-04-23T15:35:48.512Z,15.20
2018-04-23T15:38:14.624Z,16.70
2018-04-23T15:40:40.761Z,14.43
2018-04-23T15:43:06.901Z,15.30
2018-04-23T15:45:33.047Z,15.27
2018-04-23T15:47:59.410Z,18.07
2018-04-23T15:50:25.723Z,15.90
2018-04-23T15:52:52.199Z,16.53
2018-04-23T15:55:18.958Z,17.30
2018-04-23T15:57:45.304Z,16.27
2018-04-23T16:00:11.725Z,16.80
2018-04-23T16:02:38.793Z,17.40
2018-04-23T16:05:04.890Z,18.23
2018-04-23T16:07:31.206Z,17.03
2018-04-23T16:09:58.248Z,18.73
2018-04-23T16:12:24.549Z,17.87
2018-04-23T16:14:53.740Z,17.30
2018-04-23T16:17:24.287Z,15.13
2018-04-23T16:19:51.438Z,15.27
2018-04-23T16:22:17.668Z,16.17
2018-04-23T16:24:44.519Z,15.53
2018-04-23T16:27:11.731Z,15.53
2018-04-23T16:29:42.664Z,15.00
2018-04-23T16:32:09.511Z,14.60
2018-04-23T16:34:35.627Z,14.97
2018-04-23T16:37:01.776Z,14.40
2018-04-23T16:39:27.938Z,15.30
2018-04-23T16:41:54.079Z,14.20
2018-04-23T16:44:20.309Z,15.53
2018-04-23T16:46:47.242Z,14.67
2018-04-23T16:49:14.066Z,13.83
2018-04-23T16:51:40.183Z,16.90
2018-04-23T16:54:08.145Z,14.73
2018-04-23T16:56:35.196Z,15.00
2018-04-23T16:59:01.291Z,14.57
2018-04-23T17:01:27.486Z,13.77
2018-04-23T17:03:53.589Z,15.27
2018-04-23T17:06:19.739Z,14.00
2018-04-23T17:08:45.822Z,14.77
2018-04-23T17:11:12.715Z,13.70
2018-04-23T17:13:38.882Z,14.13
2018-04-23T17:16:05.006Z,14.73
2018-04-23T17:18:31.154Z,13.90
2018-04-23T17:20:57.693Z,13.40
2018-04-23T17:23:23.819Z,13.20
2018-04-23T17:25:49.927Z,12.73
2018-04-23T17:28:16.594Z,12.63
2018-04-23T17:30:42.699Z,13.47
2018-04-23T17:33:08.794Z,12.90
2018-04-23T17:35:34.903Z,13.80
2018-04-23T17:38:01.822Z,12.80
2018-04-23T17:40:27.943Z,13.63
2018-04-23T17:42:54.070Z,13.13
2018-04-23T17:45:20.209Z,13.80
2018-04-23T17:47:46.359Z,14.10
2018-04-23T17:50:12.462Z,14.23
2018-04-23T17:52:38.575Z,13.33
2018-04-23T17:55:04.906Z,12.90
2018-04-23T17:57:31.236Z,14.13
2018-04-23T17:59:57.592Z,13.10
2018-04-23T18:02:23.886Z,12.03
2018-04-23T18:04:50.917Z,12.77
2018-04-23T18:07:17.610Z,12.50
2018-04-23T18:09:44.447Z,13.40
2018-04-23T18:12:10.588Z,12.70
2018-04-23T18:14:37.433Z,13.37
2018-04-23T18:17:03.546Z,10.80
2018-04-23T18:19:29.706Z,11.90
2018-04-23T18:21:55.825Z,11.10
2018-04-23T18:24:21.915Z,12.10
2018-04-23T18:26:48.016Z,11.10
2018-04-23T18:29:14.098Z,10.33
2018-04-23T18:31:41.173Z,10.90
2018-04-23T18:34:08.225Z,10.60
2018-04-23T18:36:35.107Z,10.40
2018-04-23T18:39:01.183Z,10.90
2018-04-23T18:41:27.325Z,9.63
2018-04-23T18:43:53.415Z,9.60
2018-04-23T18:46:19.648Z,9.57
2018-04-23T18:48:45.936Z,9.30
2018-04-23T18:51:12.253Z,9.80
2018-04-23T18:53:38.526Z,9.50
2018-04-23T18:56:04.854Z,9.20
2018-04-23T18:58:31.163Z,8.63
2018-04-23T19:00:57.483Z,8.70
2018-04-23T19:03:23.783Z,8.93
2018-04-23T19:05:50.072Z,9.00
2018-04-23T19:08:17.731Z,9.97
2018-04-23T19:10:45.723Z,9.07
2018-04-23T19:13:12.018Z,8.90
2018-04-23T19:15:39.019Z,8.87
2018-04-23T19:18:05.197Z,9.27
2018-04-23T19:20:32.027Z,9.40
2018-04-23T19:23:01.609Z,8.40
2018-04-23T19:25:27.759Z,8.57
2018-04-23T19:27:54.794Z,8.70
2018-04-23T19:30:20.881Z,8.50
2018-04-23T19:32:46.958Z,8.27
2018-04-23T19:35:13.244Z,8.00
2018-04-23T19:37:40.102Z,8.00
2018-04-23T19:40:06.179Z,8.00
2018-04-23T19:42:33.053Z,7.03
2018-04-23T19:44:59.604Z,6.97
2018-04-23T19:47:25.742Z,7.17
2018-04-23T19:49:51.834Z,7.77
2018-04-23T19:52:17.926Z,7.67
2018-04-23T19:54:44.014Z,8.07
2018-04-23T19:57:10.101Z,7.30
2018-04-23T19:59:36.241Z,6.80
2018-04-23T20:02:02.899Z,7.50
2018-04-23T20:04:28.983Z,7.20
2018-04-23T20:06:55.856Z,6.87
2018-04-23T20:09:21.954Z,6.53
2018-04-23T20:11:48.039Z,6.50
2018-04-23T20:14:14.143Z,6.37
2018-04-23T20:16:40.331Z,5.97
2018-04-23T20:19:06.671Z,5.73
2018-04-23T20:21:32.978Z,5.73
2018-04-23T20:23:59.361Z,5.30
2018-04-23T20:26:25.709Z,5.53
2018-04-23T20:28:52.178Z,5.83
2018-04-23T20:31:18.474Z,5.07
2018-04-23T20:33:45.581Z,5.73
2018-04-23T20:36:11.911Z,5.27
2018-04-23T20:38:38.204Z,4.60
2018-04-23T20:41:04.508Z,5.23
2018-04-23T20:43:30.818Z,4.80
2018-04-23T20:45:57.912Z,4.57
2018-04-23T20:48:27.718Z,4.57
2018-04-23T20:50:54.127Z,4.50
2018-04-23T20:53:20.239Z,4.20
2018-04-23T20:55:46.512Z,5.20
2018-04-23T20:58:12.815Z,4.90
2018-04-23T21:00:39.847Z,5.23
2018-04-23T21:03:07.008Z,4.80
2018-04-23T21:05:33.859Z,5.37
2018-04-23T21:08:00.761Z,5.50
2018-04-23T21:10:26.875Z,5.40
2018-04-23T21:12:52.970Z,5.23
2018-04-23T21:15:19.242Z,5.17
2018-04-23T21:17:46.281Z,4.40
2018-04-23T21:20:12.402Z,5.00
2018-04-23T21:22:38.527Z,5.10
2018-04-23T21:25:04.855Z,5.20
2018-04-23T21:27:30.955Z,5.03
2018-04-23T21:29:57.993Z,5.67
2018-04-23T21:32:24.369Z,5.87
2018-04-23T21:34:50.548Z,6.10
2018-04-23T21:37:16.912Z,5.83
2018-04-23T21:39:43.204Z,4.80
2018-04-23T21:42:10.223Z,5.00
2018-04-23T21:44:36.507Z,4.80
2018-04-23T21:47:03.527Z,4.70
2018-04-23T21:49:29.935Z,4.80
2018-04-23T21:51:56.981Z,4.50
2018-04-23T21:54:23.069Z,4.50
2018-04-23T21:56:49.280Z,4.47
2018-04-23T21:59:15.504Z,4.77
2018-04-23T22:01:41.633Z,4.27
2018-04-23T22:04:07.729Z,4.27
2018-04-23T22:06:34.047Z,4.73
2018-04-23T22:09:00.374Z,4.47
2018-04-23T22:11:26.755Z,4.30
2018-04-23T22:13:53.047Z,4.70
2018-04-23T22:16:19.349Z,4.37
2018-04-23T22:18:45.751Z,4.17
2018-04-23T22:21:12.041Z,4.67
2018-04-23T22:23:39.104Z,4.30
2018-04-23T22:26:06.222Z,5.10
2018-04-23T22:28:33.304Z,4.37
2018-04-23T22:30:59.410Z,4.17
2018-04-23T22:33:25.704Z,5.00
2018-04-23T22:35:53.867Z,4.40
2018-04-23T22:38:21.963Z,5.10
2018-04-23T22:40:48.105Z,4.90
2018-04-23T22:43:14.203Z,5.67
2018-04-23T22:45:41.233Z,5.40
2018-04-23T22:48:07.507Z,5.90
2018-04-23T22:50:33.671Z,6.27
2018-04-23T22:52:59.769Z,6.03
2018-04-23T22:55:25.862Z,6.07
2018-04-23T22:57:52.050Z,8.73
2018-04-23T23:00:18.164Z,8.93
2018-04-23T23:02:44.472Z,7.70
2018-04-23T23:05:10.557Z,8.53
2018-04-23T23:07:37.012Z,9.30
2018-04-23T23:10:03.314Z,9.13
2018-04-23T23:12:29.496Z,9.77
2018-04-23T23:14:55.603Z,9.27
2018-04-23T23:17:22.599Z,9.70
2018-04-23T23:19:49.288Z,10.35
2018-04-23T23:22:15.399Z,9.93
2018-04-23T23:24:41.533Z,10.60
2018-04-23T23:27:07.631Z,11.03
2018-04-23T23:29:34.474Z,11.13
2018-04-23T23:32:01.313Z,15.05
2018-04-23T23:34:27.436Z,13.23
2018-04-23T23:36:53.534Z,16.53
2018-04-23T23:39:19.855Z,15.88
2018-04-23T23:41:46.907Z,16.02
2018-04-23T23:44:14.319Z,16.47
2018-04-23T23:46:40.996Z,16.77
2018-04-23T23:49:07.241Z,17.40
2018-04-23T23:51:33.548Z,16.23
2018-04-23T23:53:59.444Z,16.08
2018-04-23T23:56:25.559Z,14.57
2018-04-23T23:58:51.925Z,14.10
